Time,TemperatureF,DewpointF,PressureIn,WindDirection,WindDirectionDegrees,WindSpeedMPH,WindSpeedGustMPH,Humidity,HourlyPrecipIn,Conditions,Clouds,dailyrainin,SoftwareType,DateUTC
2013-05-02 00:10:00,62.7,35.0,30.40,SE,145,6.0,-999.0,35,-99.99,,,0.00,weatherlink.com 1.10,2013-05-02 04:10:00,
2013-05-02 00:25:00,62.5,36.0,30.40,SSE,151,1.0,-999.0,37,-99.99,,,0.00,weatherlink.com 1.10,2013-05-02 04:25:00,
2013-05-02 00:40:00,63.3,38.0,30.41,SE,136,0.0,-999.0,39,-99.99,,,0.00,weatherlink.com 1.10,2013-05-02 04:40:00,
2013-05-02 00:55:00,61.8,36.0,30.41,SE,136,0.0,-999.0,38,-99.99,,,0.00,weatherlink.com 1.10,2013-05-02 04:55:00,
2013-05-02 01:10:00,59.9,37.0,30.41,SE,134,1.0,-999.0,43,-99.99,,,0.00,weatherlink.com 1.10,2013-05-02 05:10:00,
2013-05-02 01:25:00,60.8,39.0,30.42,SE,124,6.0,-999.0,44,-99.99,,,0.00,weatherlink.com 1.10,2013-05-02 05:25:00,
2013-05-02 01:40:00,61.2,39.0,30.42,South,184,2.0,-999.0,44,-99.99,,,0.00,weatherlink.com 1.10,2013-05-02 05:40:00,
2013-05-02 01:55:00,61.1,39.0,30.41,SSW,192,2.0,-999.0,45,-99.99,,,0.00,weatherlink.com 1.10,2013-05-02 05:55:00,
2013-05-02 02:10:00,61.0,38.0,30.41,SSE,162,5.0,-999.0,43,-99.99,,,0.00,weatherlink.com 1.10,2013-05-02 06:10:00,
2013-05-02 02:25:00,60.6,38.0,30.41,South,178,0.0,-999.0,43,-99.99,,,0.00,weatherlink.com 1.10,2013-05-02 06:25:00,
2013-05-02 02:40:00,60.5,38.0,30.41,SSW,198,4.0,-999.0,43,-99.99,,,0.00,weatherlink.com 1.10,2013-05-02 06:40:00,
2013-05-02 02:55:00,58.5,38.0,30.41,South,171,2.0,-999.0,46,-99.99,,,0.00,weatherlink.com 1.10,2013-05-02 06:55:00,
2013-05-02 03:11:00,56.6,39.0,30.41,SE,139,3.0,-999.0,53,-99.99,,,0.00,weatherlink.com 1.10,2013-05-02 07:11:00,
2013-05-02 03:26:00,57.2,41.0,30.41,South,178,0.0,-999.0,55,-99.99,,,0.00,weatherlink.com 1.10,2013-05-02 07:26:00,
2013-05-02 03:41:00,57.9,40.0,30.41,South,180,1.0,-999.0,52,-99.99,,,0.00,weatherlink.com 1.10,2013-05-02 07:41:00,
2013-05-02 03:56:00,56.7,41.0,30.41,SSE,164,0.0,-999.0,56,-99.99,,,0.00,weatherlink.com 1.10,2013-05-02 07:56:00,
2013-05-02 04:11:00,56.0,41.0,30.41,SSE,157,1.0,-999.0,57,-99.99,,,0.00,weatherlink.com 1.10,2013-05-02 08:11:00,
2013-05-02 04:26:00,55.0,41.0,30.41,SE,141,0.0,-999.0,59,-99.99,,,0.00,weatherlink.com 1.10,2013-05-02 08:26:00,
2013-05-02 04:41:00,53.0,41.0,30.41,SE,137,0.0,-999.0,63,-99.99,,,0.00,weatherlink.com 1.10,2013-05-02 08:41:00,
2013-05-02 04:56:00,50.5,39.0,30.42,SE,137,2.0,-999.0,66,-99.99,,,0.00,weatherlink.com 1.10,2013-05-02 08:56:00,
2013-05-02 05:11:00,49.4,40.0,30.42,SE,137,0.0,-999.0,70,-99.99,,,0.00,weatherlink.com 1.10,2013-05-02 09:11:00,
2013-05-02 05:26:00,52.5,42.0,30.42,SSW,202,4.0,-999.0,67,-99.99,,,0.00,weatherlink.com 1.10,2013-05-02 09:26:00,
2013-05-02 05:41:00,55.3,42.0,30.42,SSW,210,0.0,-999.0,62,-99.99,,,0.00,weatherlink.com 1.10,2013-05-02 09:41:00,
2013-05-02 05:56:00,54.4,43.0,30.43,SSW,198,5.0,-999.0,65,-99.99,,,0.00,weatherlink.com 1.10,2013-05-02 09:56:00,
2013-05-02 06:11:00,56.3,43.0,30.43,SSW,200,7.0,-999.0,61,-99.99,,,0.00,weatherlink.com 1.10,2013-05-02 10:11:00,
2013-05-02 06:26:00,55.1,42.0,30.43,SSW,195,0.0,-999.0,61,-99.99,,,0.00,weatherlink.com 1.10,2013-05-02 10:26:00,
2013-05-02 06:41:00,51.7,42.0,30.44,South,188,2.0,-999.0,70,-99.99,,,0.00,weatherlink.com 1.10,2013-05-02 10:41:00,
2013-05-02 06:56:00,53.2,43.0,30.44,SE,146,0.0,-999.0,69,-99.99,,,0.00,weatherlink.com 1.10,2013-05-02 10:56:00,
2013-05-02 07:11:00,54.6,45.0,30.45,SE,130,0.0,-999.0,69,-99.99,,,0.00,weatherlink.com 1.10,2013-05-02 11:11:00,
2013-05-02 07:26:00,55.4,45.0,30.45,SE,142,0.0,-999.0,67,-99.99,,,0.00,weatherlink.com 1.10,2013-05-02 11:26:00,
2013-05-02 07:41:00,57.0,44.0,30.46,ESE,115,5.0,-999.0,63,-99.99,,,0.00,weatherlink.com 1.10,2013-05-02 11:41:00,
2013-05-02 07:56:00,58.5,45.0,30.46,SE,126,0.0,-999.0,61,-99.99,,,0.00,weatherlink.com 1.10,2013-05-02 11:56:00,
2013-05-02 08:11:00,60.0,46.0,30.46,SE,138,0.0,-999.0,60,-99.99,,,0.00,weatherlink.com 1.10,2013-05-02 12:11:00,
2013-05-02 08:26:00,61.2,45.0,30.46,South,173,0.0,-999.0,56,-99.99,,,0.00,weatherlink.com 1.10,2013-05-02 12:26:00,
2013-05-02 08:41:00,62.4,46.0,30.46,SW,216,10.0,-999.0,55,-99.99,,,0.00,weatherlink.com 1.10,2013-05-02 12:41:00,
2013-05-02 08:56:00,62.8,45.0,30.45,SW,220,4.0,-999.0,53,-99.99,,,0.00,weatherlink.com 1.10,2013-05-02 12:56:00,
2013-05-02 09:11:00,63.5,46.0,30.44,SSW,202,7.0,-999.0,53,-99.99,,,0.00,weatherlink.com 1.10,2013-05-02 13:11:00,
2013-05-02 09:26:00,64.8,47.0,30.44,SW,226,5.0,-999.0,52,-99.99,,,0.00,weatherlink.com 1.10,2013-05-02 13:26:00,
2013-05-02 09:41:00,65.2,45.0,30.44,SW,236,5.0,-999.0,48,-99.99,,,0.00,weatherlink.com 1.10,2013-05-02 13:41:00,
2013-05-02 09:57:00,66.3,45.0,30.43,SW,224,6.0,-999.0,46,-99.99,,,0.00,weatherlink.com 1.10,2013-05-02 13:57:00,
2013-05-02 10:12:00,67.1,43.0,30.43,WSW,240,6.0,-999.0,42,-99.99,,,0.00,weatherlink.com 1.10,2013-05-02 14:12:00,
2013-05-02 10:27:00,68.3,45.0,30.43,SW,233,0.0,-999.0,43,-99.99,,,0.00,weatherlink.com 1.10,2013-05-02 14:27:00,
2013-05-02 10:42:00,68.8,45.0,30.43,SW,231,4.0,-999.0,42,-99.99,,,0.00,weatherlink.com 1.10,2013-05-02 14:42:00,
2013-05-02 10:57:00,69.6,47.0,30.42,WSW,240,2.0,-999.0,44,-99.99,,,0.00,weatherlink.com 1.10,2013-05-02 14:57:00,
2013-05-02 11:12:00,70.8,46.0,30.42,SW,228,3.0,-999.0,41,-99.99,,,0.00,weatherlink.com 1.10,2013-05-02 15:12:00,
2013-05-02 11:27:00,72.1,48.0,30.41,West,276,4.0,-999.0,42,-99.99,,,0.00,weatherlink.com 1.10,2013-05-02 15:27:00,
2013-05-02 11:42:00,72.4,47.0,30.41,West,280,3.0,-999.0,40,-99.99,,,0.00,weatherlink.com 1.10,2013-05-02 15:42:00,
2013-05-02 11:57:00,73.4,43.0,30.40,WSW,245,7.0,-999.0,34,-99.99,,,0.00,weatherlink.com 1.10,2013-05-02 15:57:00,
2013-05-02 12:12:00,73.9,45.0,30.39,SSW,193,6.0,-999.0,36,-99.99,,,0.00,weatherlink.com 1.10,2013-05-02 16:12:00,
2013-05-02 12:27:00,75.1,47.0,30.39,SSE,148,0.0,-999.0,37,-99.99,,,0.00,weatherlink.com 1.10,2013-05-02 16:27:00,
2013-05-02 12:42:00,75.7,47.0,30.38,NE,37,7.0,-999.0,36,-99.99,,,0.00,weatherlink.com 1.10,2013-05-02 16:42:00,
2013-05-02 12:57:00,75.7,46.0,30.38,North,1,5.0,-999.0,35,-99.99,,,0.00,weatherlink.com 1.10,2013-05-02 16:57:00,
2013-05-02 13:12:00,76.9,49.0,30.36,North,4,6.0,-999.0,37,-99.99,,,0.00,weatherlink.com 1.10,2013-05-02 17:12:00,
2013-05-02 13:27:00,77.3,45.0,30.36,North,352,5.0,-999.0,32,-99.99,,,0.00,weatherlink.com 1.10,2013-05-02 17:27:00,
2013-05-02 13:42:00,77.4,46.0,30.36,NNW,342,3.0,-999.0,33,-99.99,,,0.00,weatherlink.com 1.10,2013-05-02 17:42:00,
2013-05-02 13:57:00,78.4,44.0,30.35,NW,309,6.0,-999.0,30,-99.99,,,0.00,weatherlink.com 1.10,2013-05-02 17:57:00,
2013-05-02 14:12:00,78.7,49.0,30.34,North,355,9.0,-999.0,35,-99.99,,,0.00,weatherlink.com 1.10,2013-05-02 18:12:00,
2013-05-02 14:27:00,79.2,48.0,30.34,NNW,332,9.0,-999.0,34,-99.99,,,0.00,weatherlink.com 1.10,2013-05-02 18:27:00,
2013-05-02 14:42:00,79.7,47.0,30.33,North,11,4.0,-999.0,32,-99.99,,,0.00,weatherlink.com 1.10,2013-05-02 18:42:00,
2013-05-02 14:57:00,79.9,47.0,30.33,West,271,6.0,-999.0,32,-99.99,,,0.00,weatherlink.com 1.10,2013-05-02 18:57:00,
2013-05-02 15:12:00,80.3,47.0,30.32,NW,314,9.0,-999.0,31,-99.99,,,0.00,weatherlink.com 1.10,2013-05-02 19:12:00,
2013-05-02 15:27:00,80.6,48.0,30.31,WNW,298,5.0,-999.0,32,-99.99,,,0.00,weatherlink.com 1.10,2013-05-02 19:27:00,
2013-05-02 15:43:00,80.7,47.0,30.31,NE,35,3.0,-999.0,30,-99.99,,,0.00,weatherlink.com 1.10,2013-05-02 19:43:00,
2013-05-02 15:58:00,81.0,47.0,30.31,NNW,346,8.0,-999.0,30,-99.99,,,0.00,weatherlink.com 1.10,2013-05-02 19:58:00,
2013-05-02 16:13:00,80.8,48.0,30.30,North,354,3.0,-999.0,32,-99.99,,,0.00,weatherlink.com 1.10,2013-05-02 20:13:00,
2013-05-02 16:28:00,81.0,49.0,30.30,NE,44,5.0,-999.0,33,-99.99,,,0.00,weatherlink.com 1.10,2013-05-02 20:28:00,
2013-05-02 16:43:00,80.7,47.0,30.30,North,0,6.0,-999.0,30,-99.99,,,0.00,weatherlink.com 1.10,2013-05-02 20:43:00,
2013-05-02 16:58:00,80.7,47.0,30.29,WNW,286,4.0,-999.0,30,-99.99,,,0.00,weatherlink.com 1.10,2013-05-02 20:58:00,
2013-05-02 17:13:00,81.1,48.0,30.29,NNW,347,1.0,-999.0,31,-99.99,,,0.00,weatherlink.com 1.10,2013-05-02 21:13:00,
2013-05-02 17:28:00,80.2,50.0,30.28,North,4,5.0,-999.0,35,-99.99,,,0.00,weatherlink.com 1.10,2013-05-02 21:28:00,
2013-05-02 17:43:00,78.6,50.0,30.28,NNE,12,4.0,-999.0,37,-99.99,,,0.00,weatherlink.com 1.10,2013-05-02 21:43:00,
2013-05-02 17:58:00,78.8,47.0,30.29,NNW,348,6.0,-999.0,32,-99.99,,,0.00,weatherlink.com 1.10,2013-05-02 21:58:00,
2013-05-02 18:13:00,77.9,47.0,30.28,North,359,6.0,-999.0,34,-99.99,,,0.00,weatherlink.com 1.10,2013-05-02 22:13:00,
2013-05-02 18:28:00,76.9,46.0,30.28,North,358,5.0,-999.0,34,-99.99,,,0.00,weatherlink.com 1.10,2013-05-02 22:28:00,
2013-05-02 18:43:00,76.5,46.0,30.28,North,0,6.0,-999.0,34,-99.99,,,0.00,weatherlink.com 1.10,2013-05-02 22:43:00,
2013-05-02 18:58:00,75.7,47.0,30.29,NNW,328,1.0,-999.0,36,-99.99,,,0.00,weatherlink.com 1.10,2013-05-02 22:58:00,
2013-05-02 19:13:00,75.4,48.0,30.29,NNW,340,1.0,-999.0,38,-99.99,,,0.00,weatherlink.com 1.10,2013-05-02 23:13:00,
2013-05-02 19:28:00,74.2,49.0,30.29,ESE,112,5.0,-999.0,41,-99.99,,,0.00,weatherlink.com 1.10,2013-05-02 23:28:00,
2013-05-02 19:43:00,74.3,46.0,30.30,ESE,123,5.0,-999.0,36,-99.99,,,0.00,weatherlink.com 1.10,2013-05-02 23:43:00,
2013-05-02 19:58:00,73.5,45.0,30.31,SSE,165,5.0,-999.0,36,-99.99,,,0.00,weatherlink.com 1.10,2013-05-02 23:58:00,
2013-05-02 20:13:00,72.2,44.0,30.31,ESE,110,16.0,-999.0,36,-99.99,,,0.00,weatherlink.com 1.10,2013-05-03 00:13:00,
2013-05-02 20:28:00,70.9,44.0,30.32,SE,143,16.0,-999.0,38,-99.99,,,0.00,weatherlink.com 1.10,2013-05-03 00:28:00,
2013-05-02 20:43:00,69.8,43.0,30.33,SSE,161,5.0,-999.0,38,-99.99,,,0.00,weatherlink.com 1.10,2013-05-03 00:43:00,
2013-05-02 20:58:00,68.5,43.0,30.33,East,94,6.0,-999.0,40,-99.99,,,0.00,weatherlink.com 1.10,2013-05-03 00:58:00,
2013-05-02 21:13:00,67.4,43.0,30.34,ESE,120,10.0,-999.0,41,-99.99,,,0.00,weatherlink.com 1.10,2013-05-03 01:13:00,
2013-05-02 21:28:00,66.4,42.0,30.35,ESE,114,15.0,-999.0,41,-99.99,,,0.00,weatherlink.com 1.10,2013-05-03 01:28:00,
2013-05-02 21:43:00,65.7,42.0,30.34,ESE,115,15.0,-999.0,43,-99.99,,,0.00,weatherlink.com 1.10,2013-05-03 01:43:00,
2013-05-02 21:58:00,65.2,42.0,30.36,SE,126,15.0,-999.0,43,-99.99,,,0.00,weatherlink.com 1.10,2013-05-03 01:58:00,
2013-05-02 22:13:00,64.3,41.0,30.36,South,181,16.0,-999.0,43,-99.99,,,0.00,weatherlink.com 1.10,2013-05-03 02:13:00,
2013-05-02 22:28:00,63.7,41.0,30.36,SE,138,16.0,-999.0,43,-99.99,,,0.00,weatherlink.com 1.10,2013-05-03 02:28:00,
2013-05-02 22:43:00,63.2,40.0,30.37,East,99,12.0,-999.0,43,-99.99,,,0.00,weatherlink.com 1.10,2013-05-03 02:43:00,
2013-05-02 22:58:00,62.8,39.0,30.38,SE,124,18.0,-999.0,42,-99.99,,,0.00,weatherlink.com 1.10,2013-05-03 02:58:00,
2013-05-02 23:13:00,62.1,38.0,30.38,South,171,12.0,-999.0,41,-99.99,,,0.00,weatherlink.com 1.10,2013-05-03 03:13:00,
2013-05-02 23:28:00,61.7,38.0,30.39,South,173,3.0,-999.0,41,-99.99,,,0.00,weatherlink.com 1.10,2013-05-03 03:28:00,
2013-05-02 23:43:00,61.2,38.0,30.39,South,169,5.0,-999.0,42,-99.99,,,0.00,weatherlink.com 1.10,2013-05-03 03:43:00,
2013-05-02 23:58:00,60.5,38.0,30.40,SW,216,10.0,-999.0,43,-99.99,,,0.00,weatherlink.com 1.10,2013-05-03 03:58:00,